モントリオール/トルドー の空港の天気 - METARとTAF

モントリオール・ピエール・エリオット・トルドー国際空港 ( CYUL / YUL ) - カナダ ケベック州モントリオール
飛行場実況気象(Metar)
観測時間04/21 10:00 EDT (04/21 14:00 UTC)
風向・風速南南西 4m/s
視程10km以上
天気現象
全天を覆う雲 雲底高度 180m
気温9℃
湿度87%
気圧1015hPa
METARCYUL 211400Z 21007KT 8SM OVC006 09/07 A2997 RMK ST8 SLP150
過去の天気等 Google飛行場航空写真 Wunderground天気予報

過去48時間のMETAR

飛行場予報(TAF)
発表時間: 4/21 10:39 EDT (4/21 14:39 UTC)
予報対象時間: 21日11時 EDT ~ 22日8時 EDT
風向・風速南西 4m/s
視程10km以上
全天の4割程度の雲 雲底高度 210m
21日11時 EDT ~ 21日12時 EDT に一時的に
全天の8割程度の雲 雲底高度 210m
21日14時 EDT から
風向・風速西南西 5m/s
視程10km以上
全天の4割程度の雲 雲底高度 910m
21日17時 EDT ~ 21日19時 EDT に徐々に
風向・風速北西 4m/s
21日21時 EDT ~ 21日23時 EDT に徐々に
風向・風速北 4m/s
22日5時 EDT から
風向・風速北 5m/s
視程10km以上
少しの雲 雲底高度 240m
TAF CYUL 211439Z 2115/2212 22007KT P6SM SCT007
TEMPO 2115/2116 BKN007
FM211800 24010KT P6SM SCT030
BECMG 2121/2123 32008KT
BECMG 2201/2203 36008KT
FM220900 01010KT P6SM FEW008 RMK NXT FCST BY 211800Z